Time;durP1;ratioP1;P1;durP2;ratioP2;P2;SDS_P1;SDS_P2;PMS_P1;PMS_P2;Temp;Humidity;BMP_temperature;BMP_pressure;BME280_temperature;BME280_humidity;BME280_pressure;Samples;Min_cycle;Max_cycle;Signal;HPM_P1;HPM_P2
2021/03/12 00:02:13;;;;;;;13.30;2.37;;;7.50;99.90;;;;;;5079391;28;20315;-73
2021/03/12 00:04:39;;;;;;;18.60;2.43;;;7.50;99.90;;;;;;5095567;28;20218;-74
2021/03/12 00:07:07;;;;;;;16.10;2.27;;;7.40;99.90;;;;;;5095351;28;20202;-73
2021/03/12 00:09:33;;;;;;;13.27;2.10;;;7.30;99.90;;;;;;5087522;28;20278;-73
2021/03/12 00:11:59;;;;;;;17.87;1.87;;;7.30;99.90;;;;;;5095755;28;20206;-74
2021/03/12 00:14:26;;;;;;;15.53;2.17;;;7.40;99.90;;;;;;5095151;28;20210;-73
2021/03/12 00:16:52;;;;;;;14.53;1.93;;;7.40;99.90;;;;;;5095216;28;20208;-74
2021/03/12 00:19:18;;;;;;;12.37;2.00;;;7.40;99.90;;;;;;5084302;28;20720;-74
2021/03/12 00:21:45;;;;;;;10.83;2.50;;;7.50;99.90;;;;;;5095563;28;20202;-74
2021/03/12 00:24:12;;;;;;;11.77;1.90;;;7.50;99.90;;;;;;5095264;28;20294;-74
2021/03/12 00:26:39;;;;;;;12.50;1.77;;;7.50;99.90;;;;;;5094953;28;20226;-74
2021/03/12 00:29:05;;;;;;;15.13;2.20;;;7.50;99.90;;;;;;5095528;28;20199;-74
2021/03/12 00:31:31;;;;;;;15.90;2.30;;;7.60;99.90;;;;;;5094580;28;20200;-74
2021/03/12 00:33:58;;;;;;;12.50;1.77;;;7.60;99.90;;;;;;5095224;28;20672;-74
2021/03/12 00:36:24;;;;;;;13.20;1.90;;;7.60;99.90;;;;;;5094804;28;20192;-74
2021/03/12 00:38:51;;;;;;;15.57;2.23;;;7.60;99.90;;;;;;5095142;28;20303;-74
2021/03/12 00:41:18;;;;;;;11.73;1.93;;;7.60;99.90;;;;;;5092935;28;20568;-74
2021/03/12 00:43:45;;;;;;;13.33;1.87;;;7.40;99.90;;;;;;5093967;28;20206;-74
2021/03/12 00:46:12;;;;;;;12.93;2.10;;;7.30;99.90;;;;;;5094833;28;20197;-74
2021/03/12 00:48:39;;;;;;;9.63;2.00;;;7.30;99.90;;;;;;5094562;28;20306;-74
2021/03/12 00:51:06;;;;;;;16.87;2.27;;;7.20;99.90;;;;;;5088593;28;20216;-74
2021/03/12 00:53:33;;;;;;;14.07;2.33;;;7.10;99.90;;;;;;5095038;28;20209;-74
2021/03/12 00:55:59;;;;;;;14.80;1.90;;;7.20;99.90;;;;;;5094208;28;20203;-74
2021/03/12 00:58:26;;;;;;;13.80;2.37;;;7.30;99.90;;;;;;5094410;28;20295;-73
2021/03/12 01:00:53;;;;;;;14.70;2.07;;;7.40;99.90;;;;;;5093849;28;20199;-74
2021/03/12 01:03:19;;;;;;;24.03;2.17;;;7.50;99.90;;;;;;5094337;28;20204;-74
2021/03/12 01:05:46;;;;;;;14.37;1.90;;;7.50;99.90;;;;;;5094610;28;20610;-74
2021/03/12 01:08:13;;;;;;;18.67;2.67;;;7.60;99.90;;;;;;5093638;28;20204;-74
2021/03/12 01:10:40;;;;;;;9.13;1.53;;;7.60;99.90;;;;;;5093330;28;20199;-74
2021/03/12 01:13:06;;;;;;;10.33;1.93;;;7.70;99.90;;;;;;5093907;28;20205;-74
2021/03/12 01:15:34;;;;;;;16.80;2.00;;;7.70;99.90;;;;;;5092837;28;20203;-74
2021/03/12 01:18:00;;;;;;;12.47;1.40;;;7.70;99.90;;;;;;5091242;28;20272;-74
2021/03/12 01:20:28;;;;;;;11.10;1.67;;;7.70;99.90;;;;;;5093571;28;20220;-74
2021/03/12 01:22:57;;;;;;;11.73;1.47;;;7.70;99.90;;;;;;5090079;28;20205;-74
2021/03/12 01:25:26;;;;;;;9.33;1.50;;;7.80;99.90;;;;;;5094373;28;20252;-74
2021/03/12 01:27:53;;;;;;;13.60;1.50;;;7.80;99.90;;;;;;5090043;28;20207;-74
2021/03/12 01:30:22;;;;;;;7.07;1.33;;;7.70;99.90;;;;;;5094180;28;20200;-73
2021/03/12 01:32:49;;;;;;;11.10;2.00;;;7.80;99.90;;;;;;5091094;28;20211;-74
2021/03/12 01:35:16;;;;;;;5.83;1.13;;;7.80;99.90;;;;;;5093436;28;20286;-74
2021/03/12 01:37:43;;;;;;;13.57;1.70;;;7.80;99.90;;;;;;5092495;28;20202;-74
2021/03/12 01:40:13;;;;;;;13.90;1.90;;;7.80;99.90;;;;;;5093892;28;20227;-73
2021/03/12 01:42:39;;;;;;;7.73;1.10;;;7.80;99.90;;;;;;5086705;28;20202;-73
2021/03/12 01:45:07;;;;;;;16.63;2.07;;;7.80;99.90;;;;;;5093665;28;20717;-74
2021/03/12 01:47:33;;;;;;;12.47;1.77;;;7.90;99.90;;;;;;5092577;28;20682;-74
2021/03/12 01:50:00;;;;;;;16.83;2.17;;;7.80;99.90;;;;;;5093769;28;20279;-74
2021/03/12 01:52:26;;;;;;;11.40;1.87;;;7.80;99.90;;;;;;5092655;28;20220;-73
2021/03/12 01:54:53;;;;;;;11.77;1.67;;;7.70;99.90;;;;;;5093102;28;20204;-74
2021/03/12 01:57:19;;;;;;;10.60;1.90;;;7.70;99.90;;;;;;5093309;28;20667;-73
2021/03/12 01:59:46;;;;;;;18.90;2.33;;;7.70;99.90;;;;;;5092811;28;20246;-73
2021/03/12 02:02:12;;;;;;;12.57;1.77;;;7.70;99.90;;;;;;5093960;28;20207;-74
2021/03/12 02:04:38;;;;;;;17.53;1.97;;;7.70;99.90;;;;;;5092541;28;20202;-74
2021/03/12 02:07:06;;;;;;;16.63;1.83;;;7.70;99.90;;;;;;5093557;28;20210;-74
2021/03/12 02:09:33;;;;;;;17.03;2.03;;;7.60;99.90;;;;;;5092200;28;20195;-73
2021/03/12 02:12:10;;;;;;;21.27;2.53;;;7.40;99.90;;;;;;5083484;28;20600;-73
2021/03/12 02:14:42;;;;;;;11.47;1.73;;;7.40;99.90;;;;;;5089532;28;20203;-74
2021/03/12 02:17:13;;;;;;;18.67;2.50;;;7.50;99.90;;;;;;5087997;28;20617;-74
2021/03/12 02:19:52;;;;;;;13.63;1.77;;;7.50;99.90;;;;;;5088969;28;20304;-74
2021/03/12 02:22:21;;;;;;;16.83;1.80;;;7.50;99.90;;;;;;5088036;28;20652;-74
2021/03/12 02:24:53;;;;;;;12.50;2.70;;;7.50;99.90;;;;;;5090513;28;20203;-73
2021/03/12 02:27:23;;;;;;;13.70;2.27;;;7.50;99.90;;;;;;5091872;28;20209;-74
2021/03/12 02:29:52;;;;;;;13.40;1.70;;;7.40;99.90;;;;;;5089569;28;20206;-74
2021/03/12 02:32:27;;;;;;;18.63;2.30;;;7.30;99.90;;;;;;5091011;28;20205;-74
2021/03/12 02:34:54;;;;;;;22.97;2.30;;;7.20;99.90;;;;;;5081548;28;20265;-74
2021/03/12 02:37:22;;;;;;;15.60;2.00;;;7.10;99.90;;;;;;5092375;28;20201;-74
2021/03/12 02:39:51;;;;;;;11.53;2.20;;;7.10;99.90;;;;;;5093055;28;20221;-74
2021/03/12 02:42:21;;;;;;;22.73;2.40;;;7.10;99.90;;;;;;5092757;28;20191;-74
2021/03/12 02:44:49;;;;;;;10.10;1.67;;;7.00;99.90;;;;;;5092081;28;20200;-74
2021/03/12 02:47:23;;;;;;;13.37;2.10;;;7.10;99.90;;;;;;5082946;28;20200;-74
2021/03/12 02:49:50;;;;;;;9.00;1.47;;;7.20;99.90;;;;;;5092529;28;20323;-73
2021/03/12 02:52:18;;;;;;;9.50;1.93;;;7.20;99.90;;;;;;5092330;28;20209;-74
2021/03/12 02:54:45;;;;;;;14.90;2.50;;;7.30;99.90;;;;;;5092157;28;20210;-74
2021/03/12 02:57:12;;;;;;;17.43;2.17;;;7.30;99.90;;;;;;5091918;28;20210;-74
2021/03/12 02:59:41;;;;;;;17.07;2.23;;;7.30;99.90;;;;;;5079179;28;20227;-74
2021/03/12 03:02:09;;;;;;;18.97;2.40;;;7.30;99.90;;;;;;5091992;28;20280;-73
2021/03/12 03:04:37;;;;;;;10.07;1.80;;;7.20;99.90;;;;;;5092191;28;20197;-74
2021/03/12 03:07:07;;;;;;;18.97;3.23;;;7.10;99.90;;;;;;5091679;28;20201;-74
2021/03/12 03:09:33;;;;;;;19.80;2.93;;;7.00;99.90;;;;;;5091885;28;20633;-74
2021/03/12 03:12:00;;;;;;;14.17;1.70;;;7.00;99.90;;;;;;5088344;28;20201;-74
2021/03/12 03:14:31;;;;;;;19.00;2.07;;;7.00;99.90;;;;;;5086816;28;20204;-74
2021/03/12 03:16:59;;;;;;;18.13;2.20;;;6.90;99.90;;;;;;5092781;28;20291;-73
2021/03/12 03:19:28;;;;;;;16.13;2.03;;;6.90;99.90;;;;;;5091601;28;20585;-74
2021/03/12 03:21:57;;;;;;;11.67;1.63;;;6.90;99.90;;;;;;5092407;28;20332;-74
2021/03/12 03:24:23;;;;;;;16.87;1.97;;;6.80;99.90;;;;;;5081440;28;20205;-74
2021/03/12 03:26:50;;;;;;;20.13;2.53;;;6.80;99.90;;;;;;5092827;28;20208;-74
2021/03/12 03:29:16;;;;;;;17.53;2.63;;;6.90;99.90;;;;;;5095558;28;20286;-74
2021/03/12 03:31:42;;;;;;;15.27;1.97;;;6.90;99.90;;;;;;5094422;28;20255;-74
2021/03/12 03:34:10;;;;;;;17.70;1.97;;;7.00;99.90;;;;;;5089839;28;20294;-74
2021/03/12 03:36:36;;;;;;;16.23;2.53;;;7.00;99.90;;;;;;5095023;28;20732;-74
2021/03/12 03:39:06;;;;;;;17.97;2.37;;;7.00;99.90;;;;;;5096134;28;20246;-74
2021/03/12 03:41:32;;;;;;;15.87;2.60;;;6.90;99.90;;;;;;5085651;28;20210;-74
2021/03/12 03:43:59;;;;;;;11.47;1.93;;;7.00;99.90;;;;;;5096183;28;20263;-74
2021/03/12 03:46:26;;;;;;;13.20;2.07;;;7.10;99.90;;;;;;5095827;28;20558;-74
2021/03/12 03:48:53;;;;;;;11.47;2.30;;;7.00;99.90;;;;;;5095723;28;20291;-74
2021/03/12 03:51:21;;;;;;;15.43;2.13;;;7.00;99.90;;;;;;5095015;28;20211;-75
2021/03/12 03:53:48;;;;;;;18.40;2.73;;;7.00;99.90;;;;;;5093184;28;20200;-75
2021/03/12 03:56:17;;;;;;;18.00;2.50;;;7.10;99.90;;;;;;5094857;28;20242;-75
2021/03/12 03:58:45;;;;;;;17.07;2.37;;;7.10;99.90;;;;;;5095660;28;20204;-74
2021/03/12 04:01:13;;;;;;;18.43;2.23;;;7.10;99.90;;;;;;5089908;28;20196;-74
2021/03/12 04:03:41;;;;;;;18.30;2.40;;;7.10;99.90;;;;;;5095990;28;20193;-75
2021/03/12 04:06:08;;;;;;;19.97;2.47;;;7.10;99.90;;;;;;5094909;28;20287;-74
2021/03/12 04:08:36;;;;;;;16.70;2.33;;;7.10;99.90;;;;;;5095916;28;20211;-74
2021/03/12 04:11:03;;;;;;;17.90;3.00;;;7.00;99.90;;;;;;5095159;28;20271;-74
2021/03/12 04:13:31;;;;;;;22.67;2.83;;;7.00;99.90;;;;;;5095815;28;20260;-74
2021/03/12 04:15:58;;;;;;;16.53;2.80;;;7.00;99.90;;;;;;5091203;28;20200;-74
2021/03/12 04:18:25;;;;;;;16.53;2.20;;;7.00;99.90;;;;;;5094177;28;20202;-75
2021/03/12 04:20:52;;;;;;;13.53;2.47;;;7.00;99.90;;;;;;5094863;28;20226;-74
2021/03/12 04:23:19;;;;;;;15.73;2.50;;;7.00;99.90;;;;;;5094723;28;20727;-74
2021/03/12 04:25:47;;;;;;;16.83;2.13;;;6.90;99.90;;;;;;5094484;28;20194;-74
2021/03/12 04:28:14;;;;;;;15.67;2.70;;;6.90;99.90;;;;;;5095567;28;20201;-74
2021/03/12 04:30:42;;;;;;;19.20;2.67;;;6.70;99.90;;;;;;5094521;28;20249;-74
2021/03/12 04:33:09;;;;;;;20.23;3.00;;;6.60;99.90;;;;;;5095112;28;20575;-74
2021/03/12 04:35:35;;;;;;;21.33;2.30;;;6.60;99.90;;;;;;5093426;28;20712;-74
2021/03/12 04:38:03;;;;;;;23.70;3.40;;;6.50;99.90;;;;;;5094551;28;20214;-74
2021/03/12 04:40:30;;;;;;;25.37;3.23;;;6.40;99.90;;;;;;5089307;28;20225;-74
2021/03/12 04:42:58;;;;;;;19.03;3.60;;;6.40;99.90;;;;;;5093412;28;20569;-74
2021/03/12 04:45:24;;;;;;;28.07;4.13;;;6.30;99.90;;;;;;5092948;28;20210;-74
2021/03/12 04:47:52;;;;;;;17.93;2.63;;;6.30;99.90;;;;;;5093575;28;20201;-74
2021/03/12 04:50:19;;;;;;;22.27;3.23;;;6.10;99.90;;;;;;5083667;28;20678;-74
2021/03/12 04:52:46;;;;;;;20.50;3.20;;;6.10;99.90;;;;;;5089047;28;20224;-75
2021/03/12 04:55:13;;;;;;;31.50;3.23;;;6.00;99.90;;;;;;5094265;28;20249;-74
2021/03/12 04:57:40;;;;;;;19.43;2.23;;;6.00;99.90;;;;;;5095078;28;20208;-74
2021/03/12 05:00:09;;;;;;;22.17;2.93;;;6.00;99.90;;;;;;5093943;28;20579;-75
2021/03/12 05:02:36;;;;;;;22.67;3.30;;;6.00;99.90;;;;;;5095009;28;20264;-74
2021/03/12 05:05:04;;;;;;;20.20;2.67;;;6.00;99.90;;;;;;5093860;28;20200;-74
2021/03/12 05:07:32;;;;;;;24.63;3.20;;;6.00;99.90;;;;;;5086805;28;20207;-74
2021/03/12 05:09:59;;;;;;;25.97;3.00;;;5.90;99.90;;;;;;5094381;28;20217;-74
2021/03/12 05:12:25;;;;;;;19.83;2.93;;;5.90;99.90;;;;;;5094694;28;20287;-75
2021/03/12 05:14:51;;;;;;;25.10;2.97;;;5.90;99.90;;;;;;5093885;28;20200;-74
2021/03/12 05:17:21;;;;;;;17.77;2.77;;;5.80;99.90;;;;;;5094409;28;20288;-74
2021/03/12 05:19:47;;;;;;;17.00;2.63;;;5.90;99.90;;;;;;5089426;28;20227;-73
2021/03/12 05:22:13;;;;;;;26.30;3.85;;;5.90;99.90;;;;;;5084597;28;20448;-74
2021/03/12 05:24:40;;;;;;;18.60;3.23;;;6.00;99.90;;;;;;5085478;28;20204;-74
2021/03/12 05:27:07;;;;;;;19.77;3.53;;;5.90;99.90;;;;;;5092204;28;20339;-74
2021/03/12 05:29:33;;;;;;;19.53;2.67;;;6.00;99.90;;;;;;5080080;28;20607;-74
2021/03/12 05:32:00;;;;;;;21.70;2.90;;;6.00;99.90;;;;;;5092330;28;20906;-74
2021/03/12 05:34:27;;;;;;;20.17;3.20;;;6.00;99.90;;;;;;5088049;28;20209;-74
2021/03/12 05:36:55;;;;;;;23.33;2.97;;;6.00;99.90;;;;;;5084165;28;20299;-74
2021/03/12 05:39:22;;;;;;;26.00;3.33;;;6.00;99.90;;;;;;5093963;28;20225;-74
2021/03/12 05:41:49;;;;;;;19.40;2.83;;;6.00;99.90;;;;;;5094318;28;20230;-74
2021/03/12 05:44:17;;;;;;;20.47;2.70;;;6.00;99.90;;;;;;5091474;28;20228;-74
2021/03/12 05:46:45;;;;;;;16.07;2.40;;;6.00;99.90;;;;;;5093687;28;20687;-75
2021/03/12 05:49:14;;;;;;;23.97;2.80;;;6.10;99.90;;;;;;5092697;28;20657;-74
2021/03/12 05:51:42;;;;;;;17.13;2.40;;;6.20;99.90;;;;;;5092350;28;20211;-74
2021/03/12 05:54:09;;;;;;;19.43;2.07;;;6.20;99.90;;;;;;5084005;28;20210;-75
2021/03/12 05:56:36;;;;;;;21.97;3.13;;;6.20;99.90;;;;;;5087894;28;20200;-76
2021/03/12 05:59:03;;;;;;;17.27;2.93;;;6.30;99.90;;;;;;5093474;28;20219;-74
2021/03/12 06:01:30;;;;;;;16.87;2.53;;;6.30;99.90;;;;;;5089358;28;20203;-74
2021/03/12 06:03:56;;;;;;;19.27;1.90;;;6.30;99.90;;;;;;5092619;28;20238;-74
2021/03/12 06:06:23;;;;;;;21.70;2.63;;;6.30;99.90;;;;;;5092836;28;20603;-74
2021/03/12 06:08:50;;;;;;;22.33;2.63;;;6.30;99.90;;;;;;5092950;28;20200;-74
2021/03/12 06:11:16;;;;;;;24.33;2.93;;;6.30;99.90;;;;;;5090233;28;20291;-74
2021/03/12 06:13:50;;;;;;;23.88;3.67;;;6.30;99.90;;;;;;5087667;28;20445;-74
2021/03/12 06:16:24;;;;;;;19.73;2.93;;;6.50;99.90;;;;;;5088346;28;20209;-74
2021/03/12 06:19:14;;;;;;;15.90;2.47;;;6.50;99.90;;;;;;5085621;28;20217;-74
2021/03/12 06:21:41;;;;;;;15.20;2.53;;;6.40;99.90;;;;;;5089582;28;20208;-75
2021/03/12 06:24:28;;;;;;;16.43;3.20;;;6.40;99.90;;;;;;5091600;28;20223;-74
2021/03/12 06:26:55;;;;;;;26.13;3.70;;;6.40;99.90;;;;;;5088612;28;20212;-74
2021/03/12 06:29:33;;;;;;;21.07;3.63;;;6.40;99.90;;;;;;5087814;28;20199;-74
2021/03/12 06:31:59;;;;;;;15.27;3.40;;;6.50;99.90;;;;;;5091458;28;20268;-74
2021/03/12 06:34:26;;;;;;;20.83;3.20;;;6.50;99.90;;;;;;5086581;28;20240;-74
2021/03/12 06:36:52;;;;;;;21.90;3.67;;;6.50;99.90;;;;;;5092092;28;20234;-75
2021/03/12 06:39:19;;;;;;;22.67;3.50;;;6.50;99.90;;;;;;5092433;28;20216;-74
2021/03/12 06:41:47;;;;;;;22.47;4.63;;;6.60;99.90;;;;;;5092172;28;20564;-74
2021/03/12 06:44:31;;;;;;;25.00;3.43;;;6.60;99.90;;;;;;5086595;28;20294;-74
2021/03/12 06:46:58;;;;;;;18.30;2.60;;;6.70;99.90;;;;;;5087080;28;20328;-74
2021/03/12 06:49:25;;;;;;;27.57;3.60;;;6.70;99.90;;;;;;5091970;28;20192;-75
2021/03/12 06:51:56;;;;;;;16.87;2.83;;;6.70;99.90;;;;;;5091982;28;20299;-74
2021/03/12 06:54:23;;;;;;;28.17;3.50;;;6.80;99.90;;;;;;5091871;28;20204;-75
2021/03/12 06:56:50;;;;;;;22.77;3.50;;;6.90;99.90;;;;;;5081044;28;20291;-74
2021/03/12 06:59:26;;;;;;;19.17;3.17;;;7.00;99.90;;;;;;5089966;28;20225;-74
2021/03/12 07:02:00;;;;;;;31.30;3.30;;;7.10;99.90;;;;;;5093864;28;20210;-74
2021/03/12 07:04:28;;;;;;;22.97;3.87;;;7.00;99.90;;;;;;5096006;28;20657;-74
2021/03/12 07:06:55;;;;;;;21.57;3.13;;;7.10;99.90;;;;;;5096309;28;20256;-75
2021/03/12 07:09:22;;;;;;;22.60;3.13;;;7.10;99.90;;;;;;5093141;28;20577;-74
2021/03/12 07:11:58;;;;;;;28.80;3.30;;;7.20;99.90;;;;;;5091634;28;20654;-74
2021/03/12 07:14:25;;;;;;;22.73;3.17;;;7.20;99.90;;;;;;5090712;28;20200;-75
2021/03/12 07:16:52;;;;;;;24.03;3.03;;;7.20;99.90;;;;;;5093726;28;20196;-74
2021/03/12 07:19:19;;;;;;;22.83;3.17;;;7.20;99.90;;;;;;5096441;28;20311;-74
2021/03/12 07:21:50;;;;;;;22.33;3.20;;;7.20;99.90;;;;;;5096238;28;20290;-74
2021/03/12 07:24:20;;;;;;;20.97;4.13;;;7.30;99.90;;;;;;5096191;28;20258;-74
2021/03/12 07:26:49;;;;;;;26.33;3.70;;;7.30;99.90;;;;;;5092972;28;20291;-74
2021/03/12 07:29:18;;;;;;;15.33;2.83;;;7.30;99.90;;;;;;5096034;28;20247;-74
2021/03/12 07:31:47;;;;;;;24.23;4.50;;;7.50;99.90;;;;;;5090927;28;20326;-74
2021/03/12 07:34:18;;;;;;;20.03;3.30;;;7.50;99.90;;;;;;5089588;28;20205;-74
2021/03/12 07:36:47;;;;;;;20.10;3.63;;;7.60;99.90;;;;;;5074940;28;20258;-75
2021/03/12 07:39:17;;;;;;;23.67;3.33;;;7.60;99.90;;;;;;5076699;28;20279;-74
2021/03/12 07:41:44;;;;;;;22.63;3.33;;;7.70;99.90;;;;;;5095104;28;20303;-75
2021/03/12 07:44:15;;;;;;;19.00;3.50;;;7.70;99.90;;;;;;5095403;28;20560;-74
2021/03/12 07:46:44;;;;;;;20.03;3.97;;;7.80;99.90;;;;;;5083411;28;20209;-74
2021/03/12 07:49:35;;;;;;;20.43;3.47;;;7.80;99.90;;;;;;5078833;28;20206;-74
2021/03/12 07:52:03;;;;;;;30.47;4.10;;;7.90;99.90;;;;;;5080062;28;20205;-74
2021/03/12 07:54:49;;;;;;;28.47;4.07;;;8.00;99.90;;;;;;5075834;28;20197;-74
2021/03/12 07:57:16;;;;;;;20.87;3.57;;;8.00;99.90;;;;;;5087980;28;20543;-74
2021/03/12 08:00:03;;;;;;;17.80;3.93;;;8.00;99.90;;;;;;5090148;28;20311;-74
2021/03/12 08:02:58;;;;;;;23.27;3.67;;;8.00;99.90;;;;;;5085939;28;20323;-74
2021/03/12 08:05:36;;;;;;;22.10;3.50;;;8.00;99.90;;;;;;5077196;28;20565;-75
2021/03/12 08:08:03;;;;;;;19.47;3.87;;;8.20;99.90;;;;;;5089093;28;20204;-74
2021/03/12 08:10:30;;;;;;;17.47;3.13;;;8.20;99.90;;;;;;5077177;28;20197;-73
2021/03/12 08:12:56;;;;;;;19.20;3.73;;;8.30;99.90;;;;;;5080397;28;20198;-74
2021/03/12 08:15:25;;;;;;;20.07;3.57;;;8.40;99.90;;;;;;5067750;28;20211;-74
2021/03/12 08:18:24;;;;;;;21.13;3.23;;;8.50;99.90;;;;;;5083713;28;20205;-74
2021/03/12 08:20:51;;;;;;;24.67;3.17;;;8.60;99.90;;;;;;5093383;28;20221;-74
2021/03/12 08:23:31;;;;;;;18.50;3.73;;;8.60;99.90;;;;;;5090636;28;20709;-74
2021/03/12 08:25:58;;;;;;;16.50;3.50;;;8.70;99.90;;;;;;5089071;28;20294;-74
2021/03/12 08:28:34;;;;;;;23.60;3.70;;;8.80;99.90;;;;;;5092669;28;20295;-74
2021/03/12 08:31:01;;;;;;;22.63;3.30;;;8.90;99.90;;;;;;5088736;28;20284;-74
2021/03/12 08:33:39;;;;;;;16.93;3.03;;;8.90;99.90;;;;;;5087284;28;20211;-74
2021/03/12 08:36:06;;;;;;;18.60;3.20;;;8.80;99.90;;;;;;5090247;28;20208;-74
2021/03/12 08:38:41;;;;;;;18.87;3.33;;;8.80;99.90;;;;;;5090448;28;20569;-74
2021/03/12 08:41:13;;;;;;;23.37;3.83;;;8.80;99.90;;;;;;5091610;28;20203;-74
2021/03/12 08:43:55;;;;;;;22.17;3.37;;;8.80;99.90;;;;;;5090231;28;20200;-74
2021/03/12 08:46:28;;;;;;;19.80;3.57;;;9.00;99.90;;;;;;5089773;28;20201;-74
2021/03/12 08:48:58;;;;;;;18.40;4.97;;;9.00;99.90;;;;;;5088138;28;20207;-73
2021/03/12 08:51:26;;;;;;;18.33;3.53;;;9.00;99.90;;;;;;5080202;28;20228;-74
2021/03/12 08:53:55;;;;;;;18.10;3.43;;;9.00;99.90;;;;;;5087914;28;20282;-74
2021/03/12 08:56:30;;;;;;;19.23;3.63;;;8.90;99.90;;;;;;5093183;28;20197;-74
2021/03/12 08:58:57;;;;;;;18.97;3.53;;;8.90;99.90;;;;;;5092106;28;20257;-74
2021/03/12 09:01:25;;;;;;;22.13;3.60;;;8.90;99.90;;;;;;5078097;28;20228;-74
2021/03/12 09:03:53;;;;;;;17.77;3.30;;;9.10;99.90;;;;;;5089316;28;20678;-74
2021/03/12 09:06:22;;;;;;;22.27;4.43;;;9.30;99.90;;;;;;5084181;28;20288;-73
2021/03/12 09:08:49;;;;;;;23.23;4.10;;;9.50;99.90;;;;;;5085820;28;20193;-73
2021/03/12 09:11:18;;;;;;;23.03;4.10;;;9.80;99.90;;;;;;5089046;28;20292;-73
2021/03/12 09:13:45;;;;;;;18.83;2.83;;;9.80;99.90;;;;;;5086032;28;20292;-75
2021/03/12 09:16:17;;;;;;;20.90;3.83;;;9.90;99.90;;;;;;5090122;28;20222;-74
2021/03/12 09:18:45;;;;;;;21.67;3.40;;;10.10;99.90;;;;;;5091364;28;20205;-74
2021/03/12 09:21:15;;;;;;;19.43;2.87;;;10.10;99.90;;;;;;5084910;28;20221;-74
2021/03/12 09:23:44;;;;;;;21.43;3.27;;;10.10;99.90;;;;;;5082806;28;20351;-72
2021/03/12 09:26:12;;;;;;;17.63;2.93;;;10.10;99.90;;;;;;5087930;28;20204;-72
2021/03/12 09:28:39;;;;;;;13.70;2.83;;;10.20;99.90;;;;;;5081102;28;20191;-72
2021/03/12 09:31:07;;;;;;;20.53;3.17;;;10.40;99.90;;;;;;5089788;28;20197;-72
2021/03/12 09:33:35;;;;;;;17.07;2.97;;;10.30;99.90;;;;;;5084134;28;20195;-73
2021/03/12 09:36:04;;;;;;;23.83;3.20;;;10.20;99.90;;;;;;5091946;28;20197;-73
2021/03/12 09:38:35;;;;;;;26.07;3.37;;;10.00;99.90;;;;;;5092606;28;20670;-72
2021/03/12 09:41:14;;;;;;;27.73;3.37;;;10.20;99.90;;;;;;5079071;28;20220;-74
2021/03/12 09:43:40;;;;;;;15.60;2.80;;;10.20;99.90;;;;;;5087209;28;20392;-72
2021/03/12 09:46:07;;;;;;;17.43;2.90;;;10.30;99.90;;;;;;5087786;28;20195;-72
2021/03/12 09:48:33;;;;;;;14.53;3.07;;;10.40;99.90;;;;;;5089625;28;20243;-72
2021/03/12 09:51:00;;;;;;;18.03;3.30;;;10.70;99.90;;;;;;5091997;28;20579;-73
2021/03/12 09:53:27;;;;;;;12.97;2.87;;;10.90;99.90;;;;;;5091707;28;20662;-73
2021/03/12 09:55:54;;;;;;;22.03;4.10;;;10.90;99.90;;;;;;5092630;28;20252;-73
2021/03/12 09:58:22;;;;;;;24.90;4.77;;;10.70;99.90;;;;;;5089244;28;20741;-74
2021/03/12 10:00:48;;;;;;;19.97;3.03;;;10.70;99.90;;;;;;5091780;28;20220;-76
2021/03/12 10:03:15;;;;;;;15.37;2.77;;;11.00;99.90;;;;;;5085891;28;20679;-74
2021/03/12 10:05:42;;;;;;;19.63;2.67;;;11.10;99.90;;;;;;5091889;28;20219;-74
2021/03/12 10:08:08;;;;;;;21.37;3.20;;;11.10;99.90;;;;;;5090362;28;20765;-73
2021/03/12 10:10:35;;;;;;;17.37;3.50;;;11.10;99.90;;;;;;5090266;28;20284;-73
2021/03/12 10:13:04;;;;;;;12.77;3.13;;;11.10;99.90;;;;;;5087926;28;20287;-74
2021/03/12 10:15:34;;;;;;;24.57;3.40;;;11.00;99.90;;;;;;5085275;28;20202;-75
2021/03/12 10:18:02;;;;;;;14.33;2.50;;;11.00;99.90;;;;;;5090890;28;20207;-73
2021/03/12 10:20:30;;;;;;;33.67;3.77;;;11.00;99.90;;;;;;5087661;28;20221;-74
2021/03/12 10:22:59;;;;;;;18.63;2.67;;;11.10;99.90;;;;;;5092642;28;20622;-73
2021/03/12 10:25:31;;;;;;;20.33;2.57;;;11.20;99.90;;;;;;5091066;28;20199;-74
2021/03/12 10:27:59;;;;;;;18.00;2.83;;;11.40;99.90;;;;;;5084328;28;20200;-73
2021/03/12 10:30:35;;;;;;;21.77;2.93;;;11.50;99.90;;;;;;5089771;28;20205;-73
2021/03/12 10:33:04;;;;;;;21.57;3.03;;;11.70;99.90;;;;;;5083067;28;20280;-74
2021/03/12 10:35:32;;;;;;;15.17;3.10;;;11.30;99.90;;;;;;5076192;28;20548;-73
2021/03/12 10:38:00;;;;;;;17.20;3.50;;;11.20;99.90;;;;;;5089527;28;20212;-73
2021/03/12 10:40:34;;;;;;;15.90;3.00;;;11.00;99.90;;;;;;5090376;28;20220;-74
2021/03/12 10:43:10;;;;;;;16.60;2.73;;;10.90;99.90;;;;;;5086323;28;20201;-73
2021/03/12 10:45:44;;;;;;;20.03;2.90;;;10.90;99.90;;;;;;5092056;28;20200;-73
2021/03/12 10:48:11;;;;;;;22.97;3.20;;;10.90;99.90;;;;;;5091613;28;20226;-74
2021/03/12 10:50:39;;;;;;;17.90;2.77;;;11.10;99.90;;;;;;5088652;28;20287;-73
2021/03/12 10:53:07;;;;;;;12.27;2.50;;;11.40;99.90;;;;;;5081684;28;20564;-73
2021/03/12 10:55:36;;;;;;;20.70;2.93;;;11.60;99.90;;;;;;5091830;28;20198;-73
2021/03/12 10:58:03;;;;;;;13.87;3.10;;;11.80;99.90;;;;;;5085335;28;20734;-73
2021/03/12 11:00:31;;;;;;;18.40;3.67;;;11.90;99.90;;;;;;5091378;28;20313;-73
2021/03/12 11:03:01;;;;;;;16.47;2.60;;;11.90;99.90;;;;;;5088258;28;20193;-73
2021/03/12 11:05:27;;;;;;;16.27;4.00;;;11.50;99.90;;;;;;5086726;28;20200;-74
2021/03/12 11:07:54;;;;;;;18.10;3.10;;;11.20;99.90;;;;;;5090789;28;20205;-73
2021/03/12 11:10:20;;;;;;;20.93;3.23;;;10.80;99.90;;;;;;5086900;28;20291;-74
2021/03/12 11:12:49;;;;;;;21.17;2.93;;;10.70;99.90;;;;;;5091526;28;20204;-73
2021/03/12 11:15:18;;;;;;;20.10;3.03;;;10.70;99.90;;;;;;5091264;28;20197;-73
2021/03/12 11:17:46;;;;;;;16.17;3.00;;;10.80;99.90;;;;;;5088281;28;20694;-74
2021/03/12 11:20:16;;;;;;;18.00;3.37;;;10.80;99.90;;;;;;5088818;28;20214;-74
2021/03/12 11:22:42;;;;;;;16.97;2.60;;;10.80;99.90;;;;;;5079239;28;20667;-74
2021/03/12 11:25:10;;;;;;;18.23;2.87;;;10.60;99.90;;;;;;5077828;28;20207;-74
2021/03/12 11:27:37;;;;;;;18.13;2.70;;;10.60;99.90;;;;;;5092365;28;20693;-76
2021/03/12 11:30:08;;;;;;;12.17;2.47;;;11.00;99.90;;;;;;5087479;28;20230;-76
2021/03/12 11:32:35;;;;;;;16.77;2.77;;;11.20;99.90;;;;;;5086453;28;20195;-73
2021/03/12 11:35:02;;;;;;;19.40;2.70;;;11.20;99.90;;;;;;5090927;28;20201;-74
2021/03/12 11:37:29;;;;;;;17.07;2.67;;;11.00;99.90;;;;;;5090806;28;20197;-74
2021/03/12 11:39:56;;;;;;;19.83;3.27;;;10.90;99.90;;;;;;5084477;28;20303;-74
2021/03/12 11:42:22;;;;;;;17.70;2.60;;;10.90;99.90;;;;;;5088901;28;20677;-74
2021/03/12 11:44:49;;;;;;;13.73;2.33;;;11.10;99.90;;;;;;5088493;28;20289;-74
2021/03/12 11:47:15;;;;;;;14.10;2.30;;;11.20;99.90;;;;;;5094401;28;20199;-76
2021/03/12 11:49:45;;;;;;;15.17;2.93;;;11.10;99.90;;;;;;5091975;28;20726;-74
2021/03/12 11:52:11;;;;;;;20.70;2.93;;;11.10;99.90;;;;;;5092703;28;20298;-74
2021/03/12 11:54:40;;;;;;;13.43;2.57;;;11.20;99.90;;;;;;5092046;28;20620;-74
2021/03/12 11:57:07;;;;;;;14.73;2.70;;;11.20;99.90;;;;;;5094615;28;20682;-74
2021/03/12 11:59:35;;;;;;;15.70;3.23;;;11.30;99.90;;;;;;5094652;28;20330;-74
2021/03/12 12:02:03;;;;;;;14.80;2.80;;;11.40;99.90;;;;;;5079995;28;20284;-74
2021/03/12 12:04:29;;;;;;;18.67;2.50;;;11.30;99.90;;;;;;5075793;28;20203;-74
2021/03/12 12:06:58;;;;;;;13.23;2.80;;;11.20;99.90;;;;;;5076124;28;20197;-74
2021/03/12 12:09:25;;;;;;;17.27;2.63;;;11.20;99.90;;;;;;5078898;28;20674;-74
2021/03/12 12:11:52;;;;;;;23.30;2.60;;;11.50;99.90;;;;;;5093519;28;20200;-76
2021/03/12 12:14:20;;;;;;;17.33;3.13;;;11.70;99.90;;;;;;5094927;28;20259;-73
2021/03/12 12:16:47;;;;;;;18.57;3.20;;;11.60;99.90;;;;;;5093957;28;20240;-74
2021/03/12 12:19:14;;;;;;;12.33;2.53;;;11.60;99.90;;;;;;5084538;28;20202;-74
2021/03/12 12:21:41;;;;;;;13.83;2.90;;;11.20;99.90;;;;;;5084437;28;20215;-74
2021/03/12 12:24:08;;;;;;;16.57;2.67;;;10.80;99.90;;;;;;5076050;28;20195;-74
2021/03/12 12:26:34;;;;;;;17.40;2.47;;;11.00;99.90;;;;;;5079658;28;20199;-77
2021/03/12 12:29:01;;;;;;;12.27;2.60;;;10.70;99.90;;;;;;5078146;28;20289;-74
2021/03/12 12:31:28;;;;;;;13.93;3.07;;;10.70;99.90;;;;;;5087722;28;20237;-73
2021/03/12 12:33:54;;;;;;;13.63;2.60;;;10.80;99.90;;;;;;5081694;28;20755;-73
2021/03/12 12:36:22;;;;;;;16.00;2.43;;;10.80;99.90;;;;;;5090563;28;20228;-74
2021/03/12 12:38:48;;;;;;;13.23;2.60;;;10.80;99.90;;;;;;5087058;28;20234;-76
2021/03/12 12:41:14;;;;;;;14.27;2.70;;;10.90;99.90;;;;;;5088633;28;20216;-74
2021/03/12 12:43:41;;;;;;;15.27;2.43;;;10.80;99.90;;;;;;5089181;28;20199;-76
2021/03/12 12:46:08;;;;;;;20.20;3.13;;;10.70;99.90;;;;;;5088597;28;20292;-76
2021/03/12 12:48:34;;;;;;;13.07;3.07;;;10.50;99.90;;;;;;5087654;28;20284;-75
2021/03/12 12:51:01;;;;;;;11.90;2.80;;;10.30;99.90;;;;;;5092891;28;20291;-76